Main page
Satellite images 10-day forecastsClimateMarine weather Cyclones Lightning AirportsFAQ Newsletter About
Weather : Europe Africa North America South America Asia Australia-Oceania Others
Languages Contact

London, England

City airport

latitude: 51-30N, longitude: 000-03E, elevation: 5 m


METAR: EGLC 012350Z AUTO 29007KT 9999 NCD 01/M05 Q1005
TAF: EGLC 011827Z 0118/0122 32014KT 9999 SCT030

Time: 00:09 (00:09 UTC)

Current weather observation

The report was made 19 minutes ago, at 23:50 UTC
Wind 7 kt from the West/Northwest
Temperature 1°C
Humidity 64%
Pressure 1005 hPa
Visibility 10 km or more

Change units

Forecast

The report was made 5 hours and 42 minutes ago, at 18:27 UTC
Forecast valid from 01 at 18 UTC to 01 at 22 UTC
Wind 14 kt from the Northwest
Visibility 10 km or more
Scattered clouds at a height of 3000 ft
The information on this site is subject to a disclaimer
Weather : Europe Africa North America South America Asia Australia-Oceania Others
Satellite images 10-day forecastsClimateMarine weather Cyclones Lightning AirportsFAQ Languages Contact Newsletter About